Time;durP1;ratioP1;P1;durP2;ratioP2;P2;SDS_P1;SDS_P2;PMS_P1;PMS_P2;Temp;Humidity;BMP_temperature;BMP_pressure;BME280_temperature;BME280_humidity;BME280_pressure;Samples;Min_cycle;Max_cycle;Signal;HPM_P1;HPM_P2
2021/05/13 00:01:30;;;;;;;21.25;11.53;;;;;;;7.52;86.79;98856.38;1820193;78;21512;-69
2021/05/13 00:03:56;;;;;;;22.37;11.90;;;;;;;7.48;87.10;98856.23;1820239;78;21036;-69
2021/05/13 00:06:23;;;;;;;21.02;11.18;;;;;;;7.46;87.28;98850.27;1820075;78;20877;-69
2021/05/13 00:08:55;;;;;;;27.02;11.80;;;;;;;7.45;87.42;98851.39;1820234;78;20934;-69
2021/05/13 00:11:29;;;;;;;22.90;11.05;;;;;;;7.44;87.64;98856.61;1749735;82;21028;-69
2021/05/13 00:13:52;;;;;;;33.18;11.25;;;;;;;7.42;87.83;98851.20;1750632;82;20900;-69
2021/05/13 00:16:21;;;;;;;23.90;11.35;;;;;;;7.40;88.15;98856.17;1765292;81;21558;-69
2021/05/13 00:18:47;;;;;;;29.12;12.13;;;;;;;7.39;88.23;98850.47;1750601;81;20910;-69
2021/05/13 00:21:14;;;;;;;26.90;12.65;;;;;;;7.36;88.29;98852.45;1765459;81;20907;-69
2021/05/13 00:23:40;;;;;;;33.73;13.58;;;;;;;7.34;88.22;98847.86;1750645;81;20969;-69
2021/05/13 00:26:07;;;;;;;41.20;15.88;;;;;;;7.28;88.08;98845.26;1765318;81;20909;-69
2021/05/13 00:28:33;;;;;;;38.25;15.80;;;;;;;7.24;88.06;98840.17;1750601;81;21508;-69
2021/05/13 00:31:00;;;;;;;34.13;15.23;;;;;;;7.21;88.11;98839.42;1765388;81;20999;-69
2021/05/13 00:33:27;;;;;;;35.58;14.30;;;;;;;7.19;88.22;98834.83;1750664;82;20898;-69
2021/05/13 00:35:53;;;;;;;41.90;15.40;;;;;;;7.14;88.13;98834.95;1765502;81;21535;-69
2021/05/13 00:38:19;;;;;;;46.70;16.50;;;;;;;7.07;88.07;98831.05;1750631;81;20914;-69
2021/05/13 00:40:46;;;;;;;55.35;17.32;;;;;;;6.99;87.89;98831.78;1765506;81;21084;-69
2021/05/13 00:43:12;;;;;;;51.10;17.70;;;;;;;6.91;87.95;98836.09;1750596;82;20918;-69
2021/05/13 00:45:41;;;;;;;48.75;17.62;;;;;;;6.84;87.99;98826.16;1765412;81;21562;-69
2021/05/13 00:48:15;;;;;;;53.98;17.55;;;;;;;6.79;88.04;98827.64;1750629;82;21029;-69
2021/05/13 00:50:37;;;;;;;52.62;19.25;;;;;;;6.73;88.03;98828.87;1764310;81;20968;-69
2021/05/13 00:53:08;;;;;;;47.70;18.35;;;;;;;6.68;88.06;98833.08;1765398;81;21091;-70
2021/05/13 00:55:37;;;;;;;60.98;21.60;;;;;;;6.61;88.09;98828.84;1765489;81;28491;-70
2021/05/13 00:58:05;;;;;;;55.10;19.73;;;;;;;6.57;88.10;98823.75;1765454;81;20909;-70
2021/05/13 01:02:58;;;;;;;41.05;18.25;;;;;;;6.47;88.07;98829.43;1765351;81;21005;-70
2021/05/13 01:05:25;;;;;;;40.52;16.87;;;;;;;6.40;87.90;98827.67;1765349;81;21041;-70
2021/05/13 01:07:52;;;;;;;34.67;12.90;;;;;;;6.35;87.85;98830.53;1765384;81;20917;-70
2021/05/13 01:10:19;;;;;;;30.72;12.25;;;;;;;6.31;87.99;98828.73;1765437;81;20957;-70
2021/05/13 01:12:47;;;;;;;28.55;11.65;;;;;;;6.27;88.08;98828.53;1765481;81;20921;-71
2021/05/13 01:15:54;;;;;;;25.35;10.28;;;;;;;6.23;88.17;98820.16;1765353;81;20885;-71
2021/05/13 01:18:02;;;;;;;21.73;9.33;;;;;;;6.20;88.15;98819.95;1739328;81;21695;-71
2021/05/13 01:20:25;;;;;;;16.35;8.63;;;;;;;6.15;88.29;98818.14;1722986;81;20977;-71
2021/05/13 01:22:51;;;;;;;14.47;7.97;;;;;;;6.10;88.23;98808.70;1765376;81;20982;-71
2021/05/13 01:25:18;;;;;;;16.42;7.87;;;;;;;6.08;88.29;98804.67;1765406;81;21012;-72
2021/05/13 01:27:47;;;;;;;17.23;8.10;;;;;;;6.05;88.44;98799.83;1748081;81;21535;-72
2021/05/13 01:30:16;;;;;;;12.35;7.47;;;;;;;6.04;88.50;98799.58;1765489;81;21685;-72
2021/05/13 01:32:43;;;;;;;15.03;7.53;;;;;;;6.01;88.49;98794.18;1765316;81;20976;-72
2021/05/13 01:35:10;;;;;;;13.60;6.72;;;;;;;5.99;88.57;98799.68;1765443;81;20976;-73
2021/05/13 01:37:37;;;;;;;14.25;7.55;;;;;;;5.95;88.68;98788.58;1765426;81;21531;-72
2021/05/13 01:40:06;;;;;;;17.35;7.62;;;;;;;5.90;88.60;98795.49;1765279;81;20901;-71
2021/05/13 01:42:32;;;;;;;14.33;7.35;;;;;;;5.83;88.72;98789.05;1765305;81;21626;-72
2021/05/13 01:44:58;;;;;;;16.62;7.55;;;;;;;5.79;88.93;98795.41;1765213;81;21599;-72
2021/05/13 01:47:25;;;;;;;13.55;7.10;;;;;;;5.76;89.18;98791.41;1765516;81;21020;-73
2021/05/13 01:49:51;;;;;;;14.93;6.42;;;;;;;5.75;89.30;98788.98;1765441;81;20953;-73
2021/05/13 01:52:18;;;;;;;16.70;7.35;;;;;;;5.74;89.41;98785.45;1762177;81;20972;-73
2021/05/13 01:54:46;;;;;;;13.03;7.08;;;;;;;5.75;89.60;98789.79;1730804;83;21154;-73
2021/05/13 01:57:12;;;;;;;14.18;7.25;;;;;;;5.76;89.74;98791.95;1742102;82;21505;-73
2021/05/13 01:59:39;;;;;;;12.95;7.22;;;;;;;5.76;89.89;98789.23;1730711;83;20960;-72
2021/05/13 02:02:07;;;;;;;11.25;6.75;;;;;;;5.76;89.86;98794.68;1742165;82;20954;-71
2021/05/13 02:04:34;;;;;;;13.15;6.72;;;;;;;5.75;89.92;98793.88;1730795;83;20915;-71
2021/05/13 02:07:01;;;;;;;10.78;6.33;;;;;;;5.75;89.94;98795.79;1742082;82;21089;-72
2021/05/13 02:09:29;;;;;;;16.55;7.58;;;;;;;5.73;90.04;98794.73;1730613;83;20966;-71
2021/05/13 02:11:58;;;;;;;15.48;7.22;;;;;;;5.72;90.14;98797.76;1742057;82;20891;-73
2021/05/13 02:14:26;;;;;;;16.67;7.70;;;;;;;5.71;90.22;98792.05;1730986;83;21032;-72
2021/05/13 02:16:53;;;;;;;11.53;6.65;;;;;;;5.70;90.03;98796.70;1742079;82;20922;-72
2021/05/13 02:19:19;;;;;;;13.00;6.60;;;;;;;5.70;90.44;98793.97;1730808;83;21092;-72
2021/05/13 02:21:46;;;;;;;11.57;6.10;;;;;;;5.70;90.61;98791.80;1741995;82;20902;-72
2021/05/13 02:24:12;;;;;;;11.60;6.72;;;;;;;5.71;90.74;98787.41;1730775;83;20949;-73
2021/05/13 02:26:39;;;;;;;13.95;7.42;;;;;;;5.69;90.69;98795.64;1741966;82;20981;-72
2021/05/13 02:29:06;;;;;;;14.23;7.37;;;;;;;5.69;90.69;98795.64;1730858;83;20960;-72
2021/05/13 02:31:33;;;;;;;12.25;7.10;;;;;;;5.67;90.66;98793.21;1742115;82;21077;-72
2021/05/13 02:33:59;;;;;;;9.85;6.33;;;;;;;5.68;90.88;98789.38;1730746;83;20975;-72
2021/05/13 02:36:26;;;;;;;16.70;7.62;;;;;;;5.69;91.02;98788.83;1742027;82;20926;-73
2021/05/13 02:38:52;;;;;;;12.07;7.28;;;;;;;5.67;90.97;98787.77;1730802;83;20983;-73
2021/05/13 02:41:18;;;;;;;11.53;7.50;;;;;;;5.66;90.97;98788.87;1735867;82;21583;-74
2021/05/13 02:43:45;;;;;;;12.37;6.72;;;;;;;5.61;91.11;98786.25;1712353;83;22231;-73
2021/05/13 02:46:11;;;;;;;14.03;8.03;;;;;;;5.60;90.97;98790.08;1730585;83;20948;-73
2021/05/13 02:48:39;;;;;;;15.70;8.00;;;;;;;5.58;91.11;98789.57;1712465;83;21579;-73
2021/05/13 02:51:06;;;;;;;15.40;9.08;;;;;;;5.59;91.24;98791.19;1732868;82;21104;-72
2021/05/13 02:53:33;;;;;;;15.15;8.05;;;;;;;5.59;91.39;98786.55;1751983;80;21495;-72
2021/05/13 02:56:00;;;;;;;16.60;8.60;;;;;;;5.61;91.40;98788.42;1782183;80;22149;-72
2021/05/13 02:58:26;;;;;;;20.32;7.90;;;;;;;5.63;91.50;98790.84;1782200;80;20854;-71
2021/05/13 03:01:22;;;;;;;14.28;7.75;;;;;;;5.66;91.64;98790.79;1782248;80;20893;-73
2021/05/13 03:03:36;;;;;;;15.15;7.53;;;;;;;5.69;91.81;98792.91;1781695;80;20909;-73
2021/05/13 03:06:04;;;;;;;14.70;7.80;;;;;;;5.77;92.05;98791.66;1782294;80;20874;-73
2021/05/13 03:08:31;;;;;;;13.62;7.28;;;;;;;5.86;92.31;98793.09;1782311;80;21044;-74
2021/05/13 03:10:57;;;;;;;20.08;8.18;;;;;;;5.94;92.32;98793.22;1782299;80;21693;-74
2021/05/13 03:13:26;;;;;;;13.48;6.83;;;;;;;6.02;92.31;98794.98;1782318;80;21459;-74
2021/05/13 03:15:53;;;;;;;11.30;7.60;;;;;;;6.08;92.31;98795.13;1782262;80;20893;-73
2021/05/13 03:18:22;;;;;;;16.37;7.08;;;;;;;6.14;92.26;98795.28;1782211;80;20993;-73
2021/05/13 03:20:56;;;;;;;11.93;6.62;;;;;;;6.21;92.29;98795.13;1782281;80;21121;-74
2021/05/13 03:23:16;;;;;;;9.33;6.53;;;;;;;6.33;92.19;98797.88;1781710;80;21532;-74
2021/05/13 03:25:47;;;;;;;13.05;6.65;;;;;;;6.46;91.73;98798.38;1782884;79;20899;-73
2021/05/13 03:28:11;;;;;;;12.90;7.12;;;;;;;6.56;91.24;98792.70;1790434;79;20993;-73
2021/05/13 03:30:44;;;;;;;16.65;7.03;;;;;;;6.62;90.77;98798.29;1799398;79;20941;-73
2021/05/13 03:33:12;;;;;;;12.75;7.80;;;;;;;6.65;90.41;98798.23;1774639;80;21016;-74
2021/05/13 03:35:39;;;;;;;14.68;7.65;;;;;;;6.68;90.12;98801.70;1784627;80;21020;-73
2021/05/13 03:38:08;;;;;;;13.25;7.62;;;;;;;6.67;90.07;98795.45;1784780;80;20873;-73
2021/05/13 03:40:35;;;;;;;10.80;7.22;;;;;;;6.67;90.25;98795.45;1784759;80;20869;-73
2021/05/13 03:43:02;;;;;;;15.08;7.08;;;;;;;6.70;90.36;98798.11;1788281;79;20989;-72
2021/05/13 03:45:29;;;;;;;14.55;7.67;;;;;;;6.73;90.53;98794.77;1802544;79;21043;-71
2021/05/13 03:47:55;;;;;;;14.58;7.85;;;;;;;6.79;90.79;98790.81;1814160;78;20862;-72
2021/05/13 03:50:22;;;;;;;10.95;7.10;;;;;;;6.88;90.98;98788.95;1814425;79;20973;-71
2021/05/13 03:52:49;;;;;;;10.95;7.00;;;;;;;6.96;90.95;98793.64;1809527;78;21116;-74
2021/05/13 03:55:17;;;;;;;12.88;7.05;;;;;;;7.04;90.91;98792.90;1789743;78;20904;-72
2021/05/13 03:57:43;;;;;;;25.25;8.33;;;;;;;7.12;90.75;98795.44;1787867;80;21038;-70
2021/05/13 04:00:13;;;;;;;12.88;7.78;;;;;;;7.18;90.62;98795.56;1787718;80;20959;-71
2021/05/13 04:02:41;;;;;;;11.78;7.00;;;;;;;7.24;90.38;98796.48;1787775;80;20990;-72
2021/05/13 04:05:09;;;;;;;10.50;7.20;;;;;;;7.32;90.12;98792.76;1787897;80;20932;-70
2021/05/13 04:07:37;;;;;;;13.08;7.83;;;;;;;7.39;89.96;98791.76;1788196;80;20956;-70
2021/05/13 04:10:09;;;;;;;11.18;7.40;;;;;;;7.46;89.33;98792.92;1759918;80;21104;-70
2021/05/13 04:12:38;;;;;;;12.07;7.75;;;;;;;7.56;88.76;98789.09;1787992;80;20907;-70
2021/05/13 04:15:07;;;;;;;9.83;6.55;;;;;;;7.65;88.31;98792.67;1787813;80;20895;-70
2021/05/13 04:17:34;;;;;;;9.75;6.45;;;;;;;7.76;87.88;98794.00;1787232;80;21526;-72
2021/05/13 04:20:01;;;;;;;10.45;6.45;;;;;;;7.82;87.10;98792.75;1786917;80;21615;-72
2021/05/13 04:22:27;;;;;;;12.70;6.83;;;;;;;7.89;86.88;98795.83;1786885;80;21105;-71
2021/05/13 04:24:54;;;;;;;19.35;8.03;;;;;;;7.97;86.37;98794.25;1786840;79;21558;-76
2021/05/13 04:27:21;;;;;;;11.57;7.47;;;;;;;8.03;85.83;98788.87;1786924;80;20952;-71
2021/05/13 04:29:48;;;;;;;11.43;7.83;;;;;;;8.08;85.38;98796.13;1786824;80;21042;-70
2021/05/13 04:32:14;;;;;;;10.65;7.47;;;;;;;8.17;85.49;98788.17;1787326;80;20959;-69
2021/05/13 04:34:40;;;;;;;13.62;7.20;;;;;;;8.24;84.68;98789.06;1788001;80;21581;-72
2021/05/13 04:37:07;;;;;;;13.83;6.75;;;;;;;8.31;83.83;98787.23;1787978;80;21424;-69
2021/05/13 04:39:33;;;;;;;13.70;6.92;;;;;;;8.39;83.74;98785.91;1788013;79;20880;-71
2021/05/13 04:42:00;;;;;;;10.45;7.22;;;;;;;8.49;83.31;98784.23;1787696;80;21160;-71
2021/05/13 04:44:26;;;;;;;9.15;6.28;;;;;;;8.64;82.94;98783.53;1795973;78;20961;-69
2021/05/13 04:46:58;;;;;;;11.43;6.50;;;;;;;8.78;81.62;98784.14;1793725;78;21029;-72
2021/05/13 04:49:21;;;;;;;10.88;6.40;;;;;;;8.89;80.79;98780.77;1788508;80;21016;-71
2021/05/13 04:51:48;;;;;;;13.62;7.03;;;;;;;9.02;79.74;98780.92;1790640;79;20962;-70
2021/05/13 04:54:15;;;;;;;9.58;6.08;;;;;;;9.11;79.37;98777.05;1791126;79;20917;-67
2021/05/13 04:56:42;;;;;;;9.28;6.00;;;;;;;9.23;78.80;98775.02;1775569;80;21487;-71
2021/05/13 04:59:09;;;;;;;9.23;6.08;;;;;;;9.36;77.81;98780.83;1790939;80;21074;-70
2021/05/13 05:01:37;;;;;;;12.40;6.78;;;;;;;9.50;78.37;98781.44;1796242;78;21003;-73
2021/05/13 05:04:05;;;;;;;9.38;6.60;;;;;;;9.69;77.14;98784.37;1807631;78;20913;-72
2021/05/13 05:06:32;;;;;;;11.05;6.35;;;;;;;9.81;77.01;98789.40;1799093;78;21016;-72
2021/05/13 05:08:58;;;;;;;11.22;7.35;;;;;;;9.98;76.86;98791.80;1795714;78;20973;-72
2021/05/13 05:11:25;;;;;;;11.48;5.92;;;;;;;10.12;77.29;98784.15;1821881;78;21092;-75
2021/05/13 05:13:51;;;;;;;11.12;6.58;;;;;;;10.28;76.89;98785.78;1821867;78;21024;-72
2021/05/13 05:16:19;;;;;;;12.40;6.12;;;;;;;10.37;75.99;98780.48;1822041;78;21004;-72
2021/05/13 05:18:46;;;;;;;16.07;6.78;;;;;;;10.42;75.36;98779.45;1822185;78;21018;-72
2021/05/13 05:21:12;;;;;;;10.35;6.47;;;;;;;10.46;75.14;98786.69;1822524;78;20941;-72
2021/05/13 05:23:39;;;;;;;8.80;6.12;;;;;;;10.50;75.24;98785.45;1822811;78;21962;-71
2021/05/13 05:26:06;;;;;;;7.80;5.67;;;;;;;10.54;74.87;98787.20;1823399;78;20878;-72
2021/05/13 05:28:33;;;;;;;11.55;5.92;;;;;;;10.63;73.82;98789.89;1795451;78;20842;-75
2021/05/13 05:31:00;;;;;;;7.62;5.12;;;;;;;10.68;72.56;98786.14;1815716;78;20972;-72
2021/05/13 05:33:26;;;;;;;10.58;5.92;;;;;;;10.75;71.72;98786.41;1790819;80;20893;-76
2021/05/13 05:35:53;;;;;;;7.67;5.17;;;;;;;10.78;71.75;98784.36;1791187;80;21063;-70
2021/05/13 05:38:20;;;;;;;9.38;4.55;;;;;;;10.82;70.92;98788.05;1790663;80;20945;-73
2021/05/13 05:40:47;;;;;;;7.33;4.50;;;;;;;10.85;70.87;98787.38;1790914;79;21559;-78
2021/05/13 05:43:14;;;;;;;8.65;4.92;;;;;;;10.89;71.42;98787.74;1790953;80;21542;-76
2021/05/13 05:45:40;;;;;;;8.43;5.00;;;;;;;10.98;70.16;98790.95;1790889;80;20977;-73
2021/05/13 05:48:08;;;;;;;11.60;5.80;;;;;;;11.08;71.48;98788.60;1790778;79;21022;-70
2021/05/13 05:50:37;;;;;;;7.65;5.78;;;;;;;11.32;71.32;98787.09;1801821;78;20964;-68
2021/05/13 05:53:04;;;;;;;7.15;5.00;;;;;;;11.56;71.28;98789.30;1821327;78;20869;-66
2021/05/13 05:55:32;;;;;;;7.58;4.92;;;;;;;11.85;69.32;98791.11;1820207;78;20957;-68
2021/05/13 05:58:00;;;;;;;6.50;4.78;;;;;;;12.06;68.17;98787.45;1820157;78;21587;-74
2021/05/13 06:00:27;;;;;;;8.18;5.60;;;;;;;12.20;66.57;98784.56;1762992;79;21503;-69
2021/05/13 06:02:53;;;;;;;11.18;7.58;;;;;;;12.35;66.44;98794.06;1787958;80;20881;-72
2021/05/13 06:05:20;;;;;;;14.85;5.40;;;;;;;12.53;65.14;98789.92;1787804;80;20948;-71
2021/05/13 06:07:47;;;;;;;9.05;5.12;;;;;;;12.64;61.93;98785.31;1787812;79;20991;-74
2021/05/13 06:10:14;;;;;;;12.70;10.60;;;;;;;12.65;62.38;98792.42;1788035;79;20889;-74
2021/05/13 06:12:42;;;;;;;19.37;10.18;;;;;;;12.69;63.38;98796.09;1787847;80;21064;-75
2021/05/13 06:15:14;;;;;;;16.27;4.60;;;;;;;12.76;64.24;98798.45;1759513;80;20968;-73
2021/05/13 06:17:40;;;;;;;10.98;4.08;;;;;;;12.95;61.62;98790.14;1797806;78;21492;-73
2021/05/13 06:20:21;;;;;;;11.93;4.75;;;;;;;13.06;60.62;98785.16;1810531;78;20901;-73
2021/05/13 06:22:48;;;;;;;15.43;4.92;;;;;;;13.07;61.46;98788.14;1820260;78;20901;-73
2021/05/13 06:25:16;;;;;;;16.17;4.60;;;;;;;13.12;61.74;98786.52;1818948;78;21061;-78
2021/05/13 06:27:43;;;;;;;4.17;3.47;;;;;;;13.19;60.87;98783.19;1819815;78;20920;-68
2021/05/13 06:30:10;;;;;;;8.50;6.03;;;;;;;13.26;60.12;98782.02;1820155;78;20886;-67
2021/05/13 06:32:37;;;;;;;10.58;6.40;;;;;;;13.32;60.91;98779.77;1819825;78;20934;-65
2021/05/13 06:35:05;;;;;;;7.05;5.53;;;;;;;13.38;60.40;98776.98;1820116;78;20854;-70
2021/05/13 06:37:31;;;;;;;9.48;6.33;;;;;;;13.43;60.28;98778.11;1819959;78;21684;-70
2021/05/13 06:39:58;;;;;;;5.20;3.87;;;;;;;13.48;60.52;98776.47;1819462;78;21004;-66
2021/05/13 06:42:25;;;;;;;11.12;5.33;;;;;;;13.59;60.25;98775.38;1820015;78;21369;-67
2021/05/13 06:44:52;;;;;;;11.30;7.42;;;;;;;13.72;60.73;98773.57;1819976;78;20965;-67
2021/05/13 06:47:19;;;;;;;13.75;8.53;;;;;;;13.91;58.79;98775.59;1820055;78;21562;-66
2021/05/13 06:49:45;;;;;;;10.23;8.93;;;;;;;14.01;58.40;98777.81;1790658;78;21831;-70
2021/05/13 06:52:12;;;;;;;5.87;4.40;;;;;;;13.99;57.05;98771.05;1819701;78;20910;-74
2021/05/13 06:54:38;;;;;;;14.25;10.90;;;;;;;13.93;56.18;98771.09;1817799;78;20953;-73
2021/05/13 06:57:06;;;;;;;10.60;7.67;;;;;;;13.88;56.62;98767.45;1738207;82;20973;-69
2021/05/13 06:59:33;;;;;;;5.37;4.53;;;;;;;13.89;56.99;98781.47;1768508;81;20912;-66
2021/05/13 07:02:00;;;;;;;11.55;6.47;;;;;;;13.99;56.72;98775.99;1738280;82;21076;-69
2021/05/13 07:04:31;;;;;;;5.10;3.85;;;;;;;14.13;55.55;98772.20;1768477;81;20901;-69
2021/05/13 07:06:58;;;;;;;3.70;2.90;;;;;;;14.24;53.33;98778.56;1738534;82;20932;-69
2021/05/13 07:09:26;;;;;;;4.80;3.58;;;;;;;14.32;53.62;98774.80;1767183;81;21064;-72
2021/05/13 07:11:52;;;;;;;3.27;2.27;;;;;;;14.32;52.59;98777.56;1738235;82;20929;-71
2021/05/13 07:14:21;;;;;;;6.12;2.37;;;;;;;14.27;52.42;98773.12;1768521;81;21074;-70
2021/05/13 07:16:49;;;;;;;2.65;2.30;;;;;;;14.25;54.27;98778.20;1738332;82;20953;-75
2021/05/13 07:19:16;;;;;;;6.33;3.70;;;;;;;14.35;53.61;98772.13;1767366;81;20901;-67
2021/05/13 07:21:43;;;;;;;8.25;6.15;;;;;;;14.39;54.20;98771.63;1738221;82;20953;-69
2021/05/13 07:24:10;;;;;;;13.40;9.28;;;;;;;14.36;49.86;98778.45;1768645;81;20968;-71
2021/05/13 07:26:37;;;;;;;9.78;4.75;;;;;;;14.26;51.26;98775.66;1743713;81;21551;-72
2021/05/13 07:29:06;;;;;;;7.87;3.70;;;;;;;14.27;51.24;98773.70;1719321;82;21070;-71
2021/05/13 07:31:32;;;;;;;20.97;4.70;;;;;;;14.18;51.62;98773.89;1722188;83;21551;-73
2021/05/13 07:33:59;;;;;;;16.10;8.05;;;;;;;14.01;51.32;98775.06;1722200;83;20985;-75
2021/05/13 07:36:28;;;;;;;12.05;5.55;;;;;;;13.88;51.64;98768.03;1721553;83;20910;-67
2021/05/13 07:38:55;;;;;;;31.62;12.55;;;;;;;13.85;52.90;98768.19;1737875;82;21061;-70
2021/05/13 07:41:22;;;;;;;86.65;37.38;;;;;;;14.02;53.18;98764.24;1738200;82;20970;-70
2021/05/13 07:43:50;;;;;;;24.82;14.87;;;;;;;14.23;53.59;98762.58;1738383;82;21045;-69
2021/05/13 07:46:20;;;;;;;56.83;34.73;;;;;;;14.50;51.78;98767.73;1738557;82;20907;-69
2021/05/13 07:48:46;;;;;;;29.40;18.37;;;;;;;14.74;50.36;98763.92;1752045;81;20957;-71
2021/05/13 07:51:13;;;;;;;6.87;3.95;;;;;;;14.92;49.84;98758.77;1769017;81;21663;-67
2021/05/13 07:53:39;;;;;;;3.90;2.35;;;;;;;15.05;49.85;98762.38;1762419;80;20965;-74
2021/05/13 07:56:05;;;;;;;5.25;4.00;;;;;;;15.08;50.05;98757.50;1761678;81;20965;-69
2021/05/13 07:58:33;;;;;;;4.95;2.33;;;;;;;15.13;49.93;98753.65;1743728;80;21025;-71
2021/05/13 08:01:00;;;;;;;5.22;1.82;;;;;;;15.14;48.90;98757.44;1735344;81;20985;-70
2021/05/13 08:03:26;;;;;;;9.38;4.62;;;;;;;15.24;48.54;98756.63;1742570;81;21095;-71
2021/05/13 08:05:53;;;;;;;25.92;14.10;;;;;;;15.28;47.75;98758.30;1739165;81;20968;-78
2021/05/13 08:08:20;;;;;;;35.95;17.75;;;;;;;15.35;46.91;98752.91;1735046;82;21603;-77
2021/05/13 08:10:46;;;;;;;23.45;14.25;;;;;;;15.43;45.99;98753.83;1736330;82;20944;-75
2021/05/13 08:13:16;;;;;;;15.72;6.87;;;;;;;15.37;45.43;98751.16;1736983;82;20945;-76
2021/05/13 08:15:43;;;;;;;12.70;7.58;;;;;;;15.28;46.00;98750.00;1736034;81;20941;-73
2021/05/13 08:18:10;;;;;;;31.40;16.30;;;;;;;15.26;47.27;98752.33;1737302;81;21016;-73
2021/05/13 08:20:37;;;;;;;38.17;22.20;;;;;;;15.27;47.09;98748.98;1765507;81;21008;-73
2021/05/13 08:23:03;;;;;;;40.92;24.63;;;;;;;15.20;47.37;98748.27;1749634;81;20887;-73
2021/05/13 08:25:30;;;;;;;39.55;16.48;;;;;;;15.18;48.32;98750.01;1735138;82;20946;-74
2021/05/13 08:27:56;;;;;;;17.75;9.03;;;;;;;15.25;47.17;98744.40;1735045;82;21156;-77
2021/05/13 08:30:23;;;;;;;31.30;14.15;;;;;;;15.26;46.63;98752.33;1734949;82;21026;-74
2021/05/13 08:32:50;;;;;;;18.05;8.78;;;;;;;15.36;46.63;98745.41;1734892;82;21003;-74
2021/05/13 08:35:17;;;;;;;25.25;7.33;;;;;;;15.45;45.80;98740.44;1735066;82;21476;-75
2021/05/13 08:37:43;;;;;;;19.37;7.65;;;;;;;15.50;45.65;98744.28;1735135;82;21517;-77
2021/05/13 08:40:11;;;;;;;25.88;12.90;;;;;;;15.59;45.99;98746.27;1726164;82;21099;-69
2021/05/13 08:42:39;;;;;;;11.80;6.20;;;;;;;15.69;44.90;98744.81;1734479;82;21529;-68
2021/05/13 08:45:08;;;;;;;79.67;34.33;;;;;;;15.78;45.18;98744.79;1734817;82;21563;-69
2021/05/13 08:47:45;;;;;;;184.00;73.85;;;;;;;16.01;45.19;98737.86;1734907;82;21508;-69
2021/05/13 08:50:09;;;;;;;18.45;7.90;;;;;;;16.23;43.76;98739.55;1733281;82;20974;-69
2021/05/13 08:52:36;;;;;;;6.97;4.15;;;;;;;16.29;43.16;98733.31;1735017;82;21508;-73
2021/05/13 08:55:04;;;;;;;6.25;3.70;;;;;;;16.19;42.75;98741.67;1729311;82;21576;-68
2021/05/13 08:57:31;;;;;;;7.40;2.45;;;;;;;16.11;43.90;98740.58;1782234;80;21536;-67
2021/05/13 08:59:58;;;;;;;16.60;6.42;;;;;;;16.13;43.68;98741.80;1782129;80;20901;-67
2021/05/13 09:02:29;;;;;;;20.08;9.10;;;;;;;16.21;43.85;98735.77;1781756;80;20953;-71
2021/05/13 09:04:58;;;;;;;7.33;3.00;;;;;;;16.21;44.07;98735.77;1753498;80;21079;-68
2021/05/13 09:07:30;;;;;;;14.30;7.92;;;;;;;16.25;44.45;98738.00;1782232;80;20885;-67
2021/05/13 09:10:08;;;;;;;94.92;58.60;;;;;;;16.33;43.95;98735.55;1781382;80;20941;-74
2021/05/13 09:12:41;;;;;;;5.55;3.10;;;;;;;16.46;44.04;98734.16;1782247;80;21507;-75
2021/05/13 09:15:10;;;;;;;13.13;6.75;;;;;;;16.51;44.45;98731.66;1781307;80;20929;-69
2021/05/13 09:17:38;;;;;;;20.88;12.58;;;;;;;16.50;44.44;98741.94;1715907;82;21646;-69
2021/05/13 09:20:09;;;;;;;12.50;8.15;;;;;;;16.50;42.97;98730.06;1752647;80;20874;-69
2021/05/13 09:22:36;;;;;;;27.85;15.50;;;;;;;16.35;42.61;98740.72;1749856;80;20896;-69
2021/05/13 09:25:08;;;;;;;10.50;3.85;;;;;;;16.16;42.40;98728.60;1782307;80;21535;-73
2021/05/13 09:27:47;;;;;;;8.53;5.30;;;;;;;16.14;42.87;98730.95;1782419;80;20905;-69
2021/05/13 09:30:24;;;;;;;9.18;5.67;;;;;;;16.18;42.96;98732.36;1782339;80;21665;-66
2021/05/13 09:33:00;;;;;;;22.55;9.35;;;;;;;16.47;43.31;98725.27;1752008;80;21080;-74
2021/05/13 09:35:31;;;;;;;28.47;14.53;;;;;;;16.68;42.93;98718.66;1752372;80;20917;-67
2021/05/13 09:38:01;;;;;;;5.55;2.77;;;;;;;16.85;42.89;98724.19;1782287;80;21353;-66
2021/05/13 09:40:40;;;;;;;4.40;3.33;;;;;;;17.12;42.54;98714.62;1782341;80;20897;-65
2021/05/13 09:43:21;;;;;;;13.40;9.93;;;;;;;17.53;41.36;98712.43;1781664;80;21278;-68
2021/05/13 09:45:51;;;;;;;12.82;8.88;;;;;;;17.85;40.19;98709.98;1782236;80;20894;-67
2021/05/13 09:48:42;;;;;;;7.35;2.52;;;;;;;17.96;39.90;98706.08;1782163;80;20913;-69
2021/05/13 09:51:23;;;;;;;11.25;3.42;;;;;;;18.08;40.82;98710.53;1782274;80;21044;-68
2021/05/13 09:54:19;;;;;;;11.53;2.08;;;;;;;18.13;39.48;98702.63;1782275;80;21503;-72
2021/05/13 09:56:50;;;;;;;41.15;12.33;;;;;;;17.99;39.26;98707.28;1791806;79;21166;-70
2021/05/13 09:59:36;;;;;;;19.90;5.00;;;;;;;17.87;39.57;98704.84;1790867;78;20982;-70
2021/05/13 10:02:06;;;;;;;4.30;3.22;;;;;;;17.84;40.20;98705.02;1795935;78;20941;-70
2021/05/13 10:04:32;;;;;;;14.15;3.55;;;;;;;17.89;40.32;98700.49;1782480;79;21572;-68
2021/05/13 10:07:00;;;;;;;41.75;19.07;;;;;;;18.16;40.44;98689.95;1782305;80;20911;-69
2021/05/13 10:09:27;;;;;;;8.08;5.28;;;;;;;18.47;39.59;98694.12;1782334;80;21014;-68
2021/05/13 10:11:56;;;;;;;11.10;4.72;;;;;;;18.44;37.03;98698.47;1784302;80;21529;-68
2021/05/13 10:14:26;;;;;;;19.65;12.43;;;;;;;18.16;38.14;98689.95;1795565;79;20858;-68
2021/05/13 10:16:57;;;;;;;10.93;4.70;;;;;;;18.07;39.35;98699.21;1791265;79;20985;-68
2021/05/13 10:19:29;;;;;;;8.63;3.35;;;;;;;18.03;37.69;98690.06;1791600;79;20981;-70
2021/05/13 10:21:56;;;;;;;16.02;6.97;;;;;;;17.97;37.74;98697.16;1781936;79;21618;-71
2021/05/13 10:24:23;;;;;;;8.55;4.80;;;;;;;17.76;38.62;98695.03;1731619;82;21016;-68
2021/05/13 10:26:51;;;;;;;11.15;6.95;;;;;;;17.66;38.46;98690.98;1733563;82;20985;-68
2021/05/13 10:29:26;;;;;;;7.37;4.72;;;;;;;17.55;39.43;98694.81;1788994;79;20957;-70
2021/05/13 10:32:22;;;;;;;6.85;3.20;;;;;;;17.39;39.67;98697.24;1785353;79;20890;-69
2021/05/13 10:34:54;;;;;;;9.23;2.50;;;;;;;17.17;39.56;98696.84;1789036;79;21105;-69
2021/05/13 10:37:43;;;;;;;14.03;3.40;;;;;;;16.94;40.15;98697.56;1810951;79;21437;-68
2021/05/13 10:40:16;;;;;;;10.40;2.65;;;;;;;16.81;41.38;98710.88;1811799;79;21008;-69
2021/05/13 10:42:48;;;;;;;9.58;3.50;;;;;;;16.74;41.26;98714.38;1813975;79;21637;-68
2021/05/13 10:45:31;;;;;;;9.28;3.27;;;;;;;16.61;41.50;98724.08;1775318;79;20972;-68
2021/05/13 10:48:27;;;;;;;7.53;2.98;;;;;;;16.51;42.60;98724.14;1814420;79;21854;-67
2021/05/13 10:51:02;;;;;;;10.55;2.83;;;;;;;16.47;42.43;98721.91;1814111;79;20858;-67
2021/05/13 10:53:43;;;;;;;11.57;3.12;;;;;;;16.26;42.02;98720.80;1814379;78;20965;-68
2021/05/13 10:56:30;;;;;;;18.82;2.80;;;;;;;16.04;42.38;98718.32;1813645;79;20905;-67
2021/05/13 10:59:11;;;;;;;7.97;2.20;;;;;;;15.90;43.26;98735.50;1814531;79;20854;-67
2021/05/13 11:01:47;;;;;;;13.90;3.50;;;;;;;15.74;43.91;98730.68;1814748;79;21002;-68
2021/05/13 11:04:29;;;;;;;10.85;3.45;;;;;;;15.59;45.80;98733.02;1814357;79;20920;-68
2021/05/13 11:07:05;;;;;;;14.53;2.80;;;;;;;15.51;47.10;98735.62;1814264;79;21476;-67
2021/05/13 11:09:46;;;;;;;6.45;3.20;;;;;;;15.39;48.11;98740.52;1782946;79;20917;-68
2021/05/13 11:12:18;;;;;;;10.95;5.20;;;;;;;15.18;48.11;98750.01;1814521;79;21570;-67
2021/05/13 11:15:06;;;;;;;8.78;4.05;;;;;;;14.94;48.84;98752.30;1814366;79;21076;-67
2021/05/13 11:20:23;;;;;;;8.18;3.98;;;;;;;14.60;50.83;98751.18;1803485;79;21033;-67
2021/05/13 11:23:04;;;;;;;7.58;3.60;;;;;;;14.46;50.89;98754.42;1814680;79;20997;-67
2021/05/13 11:25:39;;;;;;;7.53;3.50;;;;;;;14.34;51.51;98760.06;1814573;78;20933;-67
2021/05/13 11:28:27;;;;;;;4.85;2.40;;;;;;;14.27;51.80;98756.56;1814264;78;21642;-68
2021/05/13 11:31:07;;;;;;;9.73;2.80;;;;;;;14.26;52.56;98756.92;1794349;79;21007;-68
2021/05/13 11:33:52;;;;;;;31.35;4.42;;;;;;;14.21;52.66;98756.03;1808619;79;20985;-68
2021/05/13 11:36:23;;;;;;;21.07;5.12;;;;;;;14.17;52.30;98762.62;1816797;79;21056;-69
2021/05/13 11:39:06;;;;;;;11.35;6.00;;;;;;;14.06;52.02;98761.57;1798744;78;20972;-68
2021/05/13 11:41:30;;;;;;;21.82;5.95;;;;;;;13.94;52.41;98765.80;1791233;79;21045;-68
2021/05/13 11:43:56;;;;;;;12.80;4.45;;;;;;;13.80;55.12;98762.14;1787042;79;20935;-69